Airport View

Enter AWOS ICAO identifier for current METAR.

ex. KFNL

KHQG 031555Z AUTO 13009G14KT 10SM CLR 27/19 A3014 RMK AO2 T02660194

3 Jul 2020 16:20

Frequency: 118.600

Phone: 620-544-4000

Other Area AWOS: KLBL - KEHA - KULS - KGUY

TAF KGUY 031120Z 0312/0412 10008KT P6SM SCT250 FM031900 15012KT P6SM SCT050 SCT250 PROB30 0323/0405 5SM -TSRA BR OVC040CB FM040500 34008KT P6SM SCT250